sensor_id;sensor_type;location;lat;lon;timestamp;pressure;altitude;pressure_sealevel;temperature;humidity
21111;BME280;10713;51.912;4.494;2023-01-31T00:01:05;102461.25;;;6.40;100.00
21111;BME280;10713;51.912;4.494;2023-01-31T00:03:30;102461.28;;;6.39;100.00
21111;BME280;10713;51.912;4.494;2023-01-31T00:05:56;102463.03;;;6.41;100.00
21111;BME280;10713;51.912;4.494;2023-01-31T00:08:21;102472.66;;;6.45;100.00
21111;BME280;10713;51.912;4.494;2023-01-31T00:10:47;102472.66;;;6.48;100.00
21111;BME280;10713;51.912;4.494;2023-01-31T00:13:12;102468.28;;;6.49;100.00
21111;BME280;10713;51.912;4.494;2023-01-31T00:15:37;102470.03;;;6.51;100.00
21111;BME280;10713;51.912;4.494;2023-01-31T00:18:03;102458.69;;;6.54;100.00
21111;BME280;10713;51.912;4.494;2023-01-31T00:20:28;102463.94;;;6.57;100.00
21111;BME280;10713;51.912;4.494;2023-01-31T00:22:53;102455.22;;;6.58;100.00
21111;BME280;10713;51.912;4.494;2023-01-31T00:25:19;102453.44;;;6.57;100.00
21111;BME280;10713;51.912;4.494;2023-01-31T00:27:44;102456.09;;;6.59;100.00
21111;BME280;10713;51.912;4.494;2023-01-31T00:30:10;102436.84;;;6.58;100.00
21111;BME280;10713;51.912;4.494;2023-01-31T00:32:35;102424.56;;;6.45;100.00
21111;BME280;10713;51.912;4.494;2023-01-31T00:35:00;102421.06;;;6.43;100.00
21111;BME280;10713;51.912;4.494;2023-01-31T00:37:26;102412.28;;;6.41;100.00
21111;BME280;10713;51.912;4.494;2023-01-31T00:39:51;102414.03;;;6.40;100.00
21111;BME280;10713;51.912;4.494;2023-01-31T00:42:16;102410.56;;;6.40;100.00
21111;BME280;10713;51.912;4.494;2023-01-31T00:44:42;102404.41;;;6.33;100.00
21111;BME280;10713;51.912;4.494;2023-01-31T00:47:07;102406.16;;;6.31;100.00
21111;BME280;10713;51.912;4.494;2023-01-31T00:49:32;102403.53;;;6.31;100.00
21111;BME280;10713;51.912;4.494;2023-01-31T00:51:58;102407.03;;;6.31;100.00
21111;BME280;10713;51.912;4.494;2023-01-31T00:54:23;102397.41;;;6.32;100.00
21111;BME280;10713;51.912;4.494;2023-01-31T00:56:48;102397.38;;;6.26;100.00
21111;BME280;10713;51.912;4.494;2023-01-31T00:59:14;102390.38;;;6.20;100.00
21111;BME280;10713;51.912;4.494;2023-01-31T01:01:39;102394.75;;;6.18;100.00
21111;BME280;10713;51.912;4.494;2023-01-31T01:04:04;102392.97;;;6.11;100.00
21111;BME280;10713;51.912;4.494;2023-01-31T01:06:31;102394.69;;;6.09;100.00
21111;BME280;10713;51.912;4.494;2023-01-31T01:08:56;102392.94;;;6.06;100.00
21111;BME280;10713;51.912;4.494;2023-01-31T01:11:31;102389.44;;;6.09;100.00
21111;BME280;10713;51.912;4.494;2023-01-31T01:13:58;102384.19;;;6.01;100.00
21111;BME280;10713;51.912;4.494;2023-01-31T01:16:33;102385.03;;;6.00;100.00
21111;BME280;10713;51.912;4.494;2023-01-31T01:19:01;102382.44;;;6.00;100.00
21111;BME280;10713;51.912;4.494;2023-01-31T01:21:28;102382.44;;;6.00;100.00
21111;BME280;10713;51.912;4.494;2023-01-31T01:23:57;102371.94;;;6.00;100.00
21111;BME280;10713;51.912;4.494;2023-01-31T01:26:27;102366.69;;;5.97;100.00
21111;BME280;10713;51.912;4.494;2023-01-31T01:28:55;102369.31;;;5.96;100.00
21111;BME280;10713;51.912;4.494;2023-01-31T01:31:21;102365.81;;;5.94;100.00
21111;BME280;10713;51.912;4.494;2023-01-31T01:33:48;102370.13;;;5.92;100.00
21111;BME280;10713;51.912;4.494;2023-01-31T01:36:16;102374.53;;;5.93;100.00
21111;BME280;10713;51.912;4.494;2023-01-31T01:38:43;102376.25;;;5.91;100.00
21111;BME280;10713;51.912;4.494;2023-01-31T01:41:10;102385.00;;;5.93;100.00
21111;BME280;10713;51.912;4.494;2023-01-31T01:43:43;102392.03;;;5.97;100.00
21111;BME280;10713;51.912;4.494;2023-01-31T01:46:12;102386.81;;;6.03;100.00
21111;BME280;10713;51.912;4.494;2023-01-31T01:48:39;102393.00;;;6.13;100.00
21111;BME280;10713;51.912;4.494;2023-01-31T01:51:06;102390.38;;;6.16;100.00
21111;BME280;10713;51.912;4.494;2023-01-31T01:53:37;102386.88;;;6.20;100.00
21111;BME280;10713;51.912;4.494;2023-01-31T01:56:15;102382.53;;;6.26;100.00
21111;BME280;10713;51.912;4.494;2023-01-31T02:01:11;102388.69;;;6.30;100.00
21111;BME280;10713;51.912;4.494;2023-01-31T02:03:40;102392.19;;;6.34;100.00
21111;BME280;10713;51.912;4.494;2023-01-31T02:06:07;102392.19;;;6.38;100.00
21111;BME280;10713;51.912;4.494;2023-01-31T02:08:35;102390.47;;;6.45;100.00
21111;BME280;10713;51.912;4.494;2023-01-31T02:11:27;102386.13;;;6.59;100.00
21111;BME280;10713;51.912;4.494;2023-01-31T02:14:06;102378.25;;;6.68;100.00
21111;BME280;10713;51.912;4.494;2023-01-31T02:16:33;102373.00;;;6.77;100.00
21111;BME280;10713;51.912;4.494;2023-01-31T02:19:00;102375.63;;;6.81;100.00
21111;BME280;10713;51.912;4.494;2023-01-31T02:27:19;102377.41;;;7.03;100.00
21111;BME280;10713;51.912;4.494;2023-01-31T02:35:11;102375.66;;;6.99;100.00
21111;BME280;10713;51.912;4.494;2023-01-31T02:38:08;102374.78;;;6.97;100.00
21111;BME280;10713;51.912;4.494;2023-01-31T02:41:00;102369.53;;;6.95;100.00
21111;BME280;10713;51.912;4.494;2023-01-31T02:43:52;102361.63;;;6.89;100.00
21111;BME280;10713;51.912;4.494;2023-01-31T02:49:31;102362.53;;;6.85;100.00
21111;BME280;10713;51.912;4.494;2023-01-31T02:52:17;102359.91;;;6.87;100.00
21111;BME280;10713;51.912;4.494;2023-01-31T02:55:13;102358.16;;;6.87;100.00
21111;BME280;10713;51.912;4.494;2023-01-31T02:58:01;102348.50;;;6.89;100.00
21111;BME280;10713;51.912;4.494;2023-01-31T03:00:28;102354.66;;;6.93;100.00
21111;BME280;10713;51.912;4.494;2023-01-31T03:02:56;102355.53;;;6.96;100.00
21111;BME280;10713;51.912;4.494;2023-01-31T03:05:22;102346.75;;;7.00;100.00
21111;BME280;10713;51.912;4.494;2023-01-31T03:07:59;102345.03;;;7.10;100.00
21111;BME280;10713;51.912;4.494;2023-01-31T03:16:09;102353.75;;;7.09;100.00
21111;BME280;10713;51.912;4.494;2023-01-31T03:19:12;102345.91;;;7.08;100.00
21111;BME280;10713;51.912;4.494;2023-01-31T03:21:59;102352.00;;;7.00;100.00
21111;BME280;10713;51.912;4.494;2023-01-31T03:24:25;102345.91;;;6.94;100.00
21111;BME280;10713;51.912;4.494;2023-01-31T03:26:55;102352.91;;;6.92;100.00
21111;BME280;10713;51.912;4.494;2023-01-31T03:29:22;102339.78;;;6.89;100.00
21111;BME280;10713;51.912;4.494;2023-01-31T03:31:59;102351.16;;;6.88;100.00
21111;BME280;10713;51.912;4.494;2023-01-31T03:34:27;102350.28;;;6.76;100.00
21111;BME280;10713;51.912;4.494;2023-01-31T03:36:57;102345.91;;;6.74;100.00
21111;BME280;10713;51.912;4.494;2023-01-31T03:39:54;102334.50;;;6.72;100.00
21111;BME280;10713;51.912;4.494;2023-01-31T03:42:50;102339.75;;;6.66;100.00
21111;BME280;10713;51.912;4.494;2023-01-31T03:45:27;102336.25;;;6.59;100.00
21111;BME280;10713;51.912;4.494;2023-01-31T03:47:57;102333.63;;;6.51;100.00
21111;BME280;10713;51.912;4.494;2023-01-31T03:50:29;102334.50;;;6.52;100.00
21111;BME280;10713;51.912;4.494;2023-01-31T03:53:05;102326.63;;;6.52;100.00
21111;BME280;10713;51.912;4.494;2023-01-31T03:55:37;102331.00;;;6.54;100.00
21111;BME280;10713;51.912;4.494;2023-01-31T03:58:05;102323.13;;;6.54;100.00
21111;BME280;10713;51.912;4.494;2023-01-31T04:00:33;102334.53;;;6.61;100.00
21111;BME280;10713;51.912;4.494;2023-01-31T04:03:15;102334.50;;;6.66;100.00
21111;BME280;10713;51.912;4.494;2023-01-31T04:05:43;102352.88;;;6.66;100.00
21111;BME280;10713;51.912;4.494;2023-01-31T04:08:09;102345.00;;;6.69;100.00
21111;BME280;10713;51.912;4.494;2023-01-31T04:10:35;102343.28;;;6.71;100.00
21111;BME280;10713;51.912;4.494;2023-01-31T04:13:01;102338.88;;;6.74;100.00
21111;BME280;10713;51.912;4.494;2023-01-31T04:15:26;102317.03;;;6.75;100.00
21111;BME280;10713;51.912;4.494;2023-01-31T04:17:52;102325.78;;;6.77;100.00
21111;BME280;10713;51.912;4.494;2023-01-31T04:20:17;102317.88;;;6.84;100.00
21111;BME280;10713;51.912;4.494;2023-01-31T04:22:42;102319.63;;;6.86;100.00
21111;BME280;10713;51.912;4.494;2023-01-31T04:25:08;102310.03;;;6.91;100.00
21111;BME280;10713;51.912;4.494;2023-01-31T04:27:33;102304.78;;;6.90;100.00
21111;BME280;10713;51.912;4.494;2023-01-31T04:29:59;102308.25;;;6.92;100.00
21111;BME280;10713;51.912;4.494;2023-01-31T04:32:24;102307.41;;;6.96;100.00
21111;BME280;10713;51.912;4.494;2023-01-31T04:34:49;102299.50;;;6.97;100.00
21111;BME280;10713;51.912;4.494;2023-01-31T04:37:15;102300.38;;;6.99;100.00
21111;BME280;10713;51.912;4.494;2023-01-31T04:39:41;102298.63;;;7.00;100.00
21111;BME280;10713;51.912;4.494;2023-01-31T04:42:06;102297.75;;;6.98;100.00
21111;BME280;10713;51.912;4.494;2023-01-31T04:44:31;102281.16;;;6.99;100.00
21111;BME280;10713;51.912;4.494;2023-01-31T04:46:57;102275.91;;;6.99;100.00
21111;BME280;10713;51.912;4.494;2023-01-31T04:49:22;102288.13;;;7.03;100.00
21111;BME280;10713;51.912;4.494;2023-01-31T04:51:47;102294.25;;;7.02;100.00
21111;BME280;10713;51.912;4.494;2023-01-31T04:54:13;102289.00;;;7.00;100.00
21111;BME280;10713;51.912;4.494;2023-01-31T04:56:38;102289.91;;;7.01;100.00
21111;BME280;10713;51.912;4.494;2023-01-31T04:59:04;102289.00;;;7.00;100.00
21111;BME280;10713;51.912;4.494;2023-01-31T05:01:29;102280.25;;;7.05;100.00
21111;BME280;10713;51.912;4.494;2023-01-31T05:03:55;102276.75;;;7.07;100.00
21111;BME280;10713;51.912;4.494;2023-01-31T05:06:20;102280.22;;;7.09;100.00
21111;BME280;10713;51.912;4.494;2023-01-31T05:08:46;102274.97;;;7.09;100.00
21111;BME280;10713;51.912;4.494;2023-01-31T05:11:11;102277.63;;;7.06;100.00
21111;BME280;10713;51.912;4.494;2023-01-31T05:13:36;102263.63;;;7.03;100.00
21111;BME280;10713;51.912;4.494;2023-01-31T05:16:11;102254.00;;;7.08;100.00
21111;BME280;10713;51.912;4.494;2023-01-31T05:18:37;102251.38;;;7.05;100.00
21111;BME280;10713;51.912;4.494;2023-01-31T05:21:04;102258.38;;;7.10;100.00
21111;BME280;10713;51.912;4.494;2023-01-31T05:23:30;102255.72;;;7.13;100.00
21111;BME280;10713;51.912;4.494;2023-01-31T05:25:56;102259.22;;;7.17;100.00
21111;BME280;10713;51.912;4.494;2023-01-31T05:28:23;102267.09;;;7.18;100.00
21111;BME280;10713;51.912;4.494;2023-01-31T05:30:51;102267.09;;;7.18;100.00
21111;BME280;10713;51.912;4.494;2023-01-31T05:33:16;102276.72;;;7.22;100.00
21111;BME280;10713;51.912;4.494;2023-01-31T05:35:45;102261.84;;;7.21;100.00
21111;BME280;10713;51.912;4.494;2023-01-31T05:38:10;102269.72;;;7.14;100.00
21111;BME280;10713;51.912;4.494;2023-01-31T05:40:35;102260.97;;;7.15;100.00
21111;BME280;10713;51.912;4.494;2023-01-31T05:43:01;102261.84;;;7.14;100.00
21111;BME280;10713;51.912;4.494;2023-01-31T05:45:27;102261.88;;;7.15;100.00
21111;BME280;10713;51.912;4.494;2023-01-31T05:47:53;102253.09;;;7.15;100.00
21111;BME280;10713;51.912;4.494;2023-01-31T05:50:19;102261.84;;;7.20;100.00
21111;BME280;10713;51.912;4.494;2023-01-31T05:52:56;102254.84;;;7.22;100.00
21111;BME280;10713;51.912;4.494;2023-01-31T05:55:24;102262.69;;;7.23;100.00
21111;BME280;10713;51.912;4.494;2023-01-31T05:57:51;102274.09;;;7.24;100.00
21111;BME280;10713;51.912;4.494;2023-01-31T06:00:17;102277.59;;;7.25;100.00
21111;BME280;10713;51.912;4.494;2023-01-31T06:02:42;102274.97;;;7.25;100.00
21111;BME280;10713;51.912;4.494;2023-01-31T06:05:08;102269.69;;;7.26;100.00
21111;BME280;10713;51.912;4.494;2023-01-31T06:07:34;102269.69;;;7.26;100.00
21111;BME280;10713;51.912;4.494;2023-01-31T06:09:59;102260.06;;;7.27;100.00
21111;BME280;10713;51.912;4.494;2023-01-31T06:12:25;102253.94;;;7.31;100.00
21111;BME280;10713;51.912;4.494;2023-01-31T06:14:50;102253.03;;;7.32;100.00
21111;BME280;10713;51.912;4.494;2023-01-31T06:17:15;102257.44;;;7.31;100.00
21111;BME280;10713;51.912;4.494;2023-01-31T06:19:41;102267.06;;;7.31;100.00
21111;BME280;10713;51.912;4.494;2023-01-31T06:22:06;102266.19;;;7.32;100.00
21111;BME280;10713;51.912;4.494;2023-01-31T06:24:32;102272.31;;;7.34;100.00
21111;BME280;10713;51.912;4.494;2023-01-31T06:26:57;102260.06;;;7.36;100.00
21111;BME280;10713;51.912;4.494;2023-01-31T06:29:23;102258.25;;;7.41;100.00
21111;BME280;10713;51.912;4.494;2023-01-31T06:31:48;102254.75;;;7.43;100.00
21111;BME280;10713;51.912;4.494;2023-01-31T06:34:14;102251.25;;;7.48;100.00
21111;BME280;10713;51.912;4.494;2023-01-31T06:36:39;102248.59;;;7.51;100.00
21111;BME280;10713;51.912;4.494;2023-01-31T06:39:05;102254.72;;;7.51;100.00
21111;BME280;10713;51.912;4.494;2023-01-31T06:41:30;102255.59;;;7.53;100.00
21111;BME280;10713;51.912;4.494;2023-01-31T06:43:56;102250.31;;;7.55;100.00
21111;BME280;10713;51.912;4.494;2023-01-31T06:46:22;102241.56;;;7.59;100.00
21111;BME280;10713;51.912;4.494;2023-01-31T06:48:47;102228.41;;;7.57;100.00
21111;BME280;10713;51.912;4.494;2023-01-31T06:51:14;102234.56;;;7.59;100.00
21111;BME280;10713;51.912;4.494;2023-01-31T06:53:39;102225.78;;;7.60;100.00
21111;BME280;10713;51.912;4.494;2023-01-31T06:56:05;102210.88;;;7.61;100.00
21111;BME280;10713;51.912;4.494;2023-01-31T06:58:31;102217.84;;;7.66;100.00
21111;BME280;10713;51.912;4.494;2023-01-31T07:01:05;102211.75;;;7.67;100.00
21111;BME280;10713;51.912;4.494;2023-01-31T07:03:31;102202.94;;;7.72;100.00
21111;BME280;10713;51.912;4.494;2023-01-31T07:05:57;102200.28;;;7.75;100.00
21111;BME280;10713;51.912;4.494;2023-01-31T07:08:22;102195.09;;;7.70;100.00
21111;BME280;10713;51.912;4.494;2023-01-31T07:10:47;102177.53;;;7.72;100.00
21111;BME280;10713;51.912;4.494;2023-01-31T07:13:13;102167.00;;;7.75;100.00
21111;BME280;10713;51.912;4.494;2023-01-31T07:15:38;102170.50;;;7.77;100.00
21111;BME280;10713;51.912;4.494;2023-01-31T07:18:04;102174.00;;;7.76;100.00
21111;BME280;10713;51.912;4.494;2023-01-31T07:20:30;102183.63;;;7.77;100.00
21111;BME280;10713;51.912;4.494;2023-01-31T07:22:57;102167.88;;;7.79;100.00
21111;BME280;10713;51.912;4.494;2023-01-31T07:25:23;102177.50;;;7.81;100.00
21111;BME280;10713;51.912;4.494;2023-01-31T07:27:49;102168.72;;;7.78;100.00
21111;BME280;10713;51.912;4.494;2023-01-31T07:30:14;102187.13;;;7.78;100.00
21111;BME280;10713;51.912;4.494;2023-01-31T07:32:40;102173.09;;;7.82;100.00
21111;BME280;10713;51.912;4.494;2023-01-31T07:35:05;102176.56;;;7.84;100.00
21111;BME280;10713;51.912;4.494;2023-01-31T07:37:31;102170.44;;;7.85;100.00
21111;BME280;10713;51.912;4.494;2023-01-31T07:39:56;102173.91;;;7.88;100.00
21111;BME280;10713;51.912;4.494;2023-01-31T07:42:22;102170.44;;;7.85;100.00
21111;BME280;10713;51.912;4.494;2023-01-31T07:44:47;102179.19;;;7.90;100.00
21111;BME280;10713;51.912;4.494;2023-01-31T07:47:12;102175.63;;;7.94;100.00
21111;BME280;10713;51.912;4.494;2023-01-31T07:49:38;102159.81;;;8.00;100.00
21111;BME280;10713;51.912;4.494;2023-01-31T07:52:03;102157.19;;;8.02;100.00
21111;BME280;10713;51.912;4.494;2023-01-31T07:54:29;102161.53;;;8.03;100.00
21111;BME280;10713;51.912;4.494;2023-01-31T07:56:54;102140.50;;;8.03;100.00
21111;BME280;10713;51.912;4.494;2023-01-31T07:59:19;102133.53;;;7.99;100.00
21111;BME280;10713;51.912;4.494;2023-01-31T08:01:45;102136.97;;;8.04;100.00
21111;BME280;10713;51.912;4.494;2023-01-31T08:04:29;102147.50;;;8.04;100.00
21111;BME280;10713;51.912;4.494;2023-01-31T08:06:54;102141.34;;;8.06;100.00
21111;BME280;10713;51.912;4.494;2023-01-31T08:09:21;102138.72;;;8.06;100.00
21111;BME280;10713;51.912;4.494;2023-01-31T08:11:46;102143.06;;;8.12;100.00
21111;BME280;10713;51.912;4.494;2023-01-31T08:14:12;102144.84;;;8.10;100.00
21111;BME280;10713;51.912;4.494;2023-01-31T08:16:37;102145.72;;;8.09;100.00
21111;BME280;10713;51.912;4.494;2023-01-31T08:19:04;102144.84;;;8.08;100.00
21111;BME280;10713;51.912;4.494;2023-01-31T08:21:29;102126.44;;;8.08;100.00
21111;BME280;10713;51.912;4.494;2023-01-31T08:23:55;102131.69;;;8.10;100.00
21111;BME280;10713;51.912;4.494;2023-01-31T08:26:20;102135.22;;;8.07;100.00
21111;BME280;10713;51.912;4.494;2023-01-31T08:28:48;102132.59;;;8.07;100.00
21111;BME280;10713;51.912;4.494;2023-01-31T08:31:22;102129.09;;;8.04;100.00
21111;BME280;10713;51.912;4.494;2023-01-31T08:33:48;102131.72;;;8.04;100.00
21111;BME280;10713;51.912;4.494;2023-01-31T08:36:22;102123.84;;;8.04;100.00
21111;BME280;10713;51.912;4.494;2023-01-31T08:38:48;102112.44;;;8.03;100.00
21111;BME280;10713;51.912;4.494;2023-01-31T08:41:14;102128.16;;;8.09;100.00
21111;BME280;10713;51.912;4.494;2023-01-31T08:43:42;102115.91;;;8.13;100.00
21111;BME280;10713;51.912;4.494;2023-01-31T08:46:07;102111.47;;;8.17;100.00
21111;BME280;10713;51.912;4.494;2023-01-31T08:48:37;102113.22;;;8.16;100.00
21111;BME280;10713;51.912;4.494;2023-01-31T08:51:04;102118.34;;;8.31;100.00
21111;BME280;10713;51.912;4.494;2023-01-31T08:53:30;102128.69;;;8.53;100.00
21111;BME280;10713;51.912;4.494;2023-01-31T08:56:00;102122.38;;;8.71;100.00
21111;BME280;10713;51.912;4.494;2023-01-31T08:58:26;102110.06;;;8.71;100.00
21111;BME280;10713;51.912;4.494;2023-01-31T09:00:52;102112.63;;;8.79;100.00
21111;BME280;10713;51.912;4.494;2023-01-31T09:03:17;102118.72;;;8.81;100.00
21111;BME280;10713;51.912;4.494;2023-01-31T09:05:43;102123.94;;;8.84;100.00
21111;BME280;10713;51.912;4.494;2023-01-31T09:08:08;102112.59;;;8.82;100.00
21111;BME280;10713;51.912;4.494;2023-01-31T09:10:34;102123.94;;;8.87;100.00
21111;BME280;10713;51.912;4.494;2023-01-31T09:12:59;102128.34;;;8.85;100.00
21111;BME280;10713;51.912;4.494;2023-01-31T09:15:25;102124.84;;;8.83;100.00
21111;BME280;10713;51.912;4.494;2023-01-31T09:17:53;102128.41;;;8.77;100.00
21111;BME280;10713;51.912;4.494;2023-01-31T09:20:19;102114.44;;;8.72;100.00
21111;BME280;10713;51.912;4.494;2023-01-31T09:22:44;102124.06;;;8.75;100.00
21111;BME280;10713;51.912;4.494;2023-01-31T09:25:10;102125.88;;;8.70;100.00
21111;BME280;10713;51.912;4.494;2023-01-31T09:27:37;102117.97;;;8.71;100.00
21111;BME280;10713;51.912;4.494;2023-01-31T09:30:08;102108.25;;;8.75;100.00
21111;BME280;10713;51.912;4.494;2023-01-31T09:32:34;102105.66;;;8.72;100.00
21111;BME280;10713;51.912;4.494;2023-01-31T09:35:01;102102.06;;;8.80;100.00
21111;BME280;10713;51.912;4.494;2023-01-31T09:37:28;102085.84;;;9.13;100.00
21111;BME280;10713;51.912;4.494;2023-01-31T09:39:55;102073.75;;;9.58;100.00
21111;BME280;10713;51.912;4.494;2023-01-31T09:42:32;102062.09;;;10.27;100.00
21111;BME280;10713;51.912;4.494;2023-01-31T09:45:05;102081.38;;;10.31;100.00
21111;BME280;10713;51.912;4.494;2023-01-31T09:50:21;102062.88;;;9.80;100.00
21111;BME280;10713;51.912;4.494;2023-01-31T09:52:48;102070.13;;;9.67;100.00
21111;BME280;10713;51.912;4.494;2023-01-31T09:55:16;102080.75;;;9.61;100.00
21111;BME280;10713;51.912;4.494;2023-01-31T10:00:32;102057.22;;;9.48;100.00
21111;BME280;10713;51.912;4.494;2023-01-31T10:03:15;102077.47;;;9.46;100.00
21111;BME280;10713;51.912;4.494;2023-01-31T10:08:58;102073.06;;;9.47;100.00
21111;BME280;10713;51.912;4.494;2023-01-31T10:11:33;102081.81;;;9.49;100.00
21111;BME280;10713;51.912;4.494;2023-01-31T10:19:19;102098.34;;;9.62;100.00
21111;BME280;10713;51.912;4.494;2023-01-31T10:21:53;102088.56;;;9.68;100.00
21111;BME280;10713;51.912;4.494;2023-01-31T10:24:28;102090.25;;;9.73;100.00
21111;BME280;10713;51.912;4.494;2023-01-31T10:27:00;102084.97;;;9.74;100.00
21111;BME280;10713;51.912;4.494;2023-01-31T10:29:38;102099.91;;;9.74;100.00
21111;BME280;10713;51.912;4.494;2023-01-31T10:32:14;102097.44;;;9.64;100.00
21111;BME280;10713;51.912;4.494;2023-01-31T10:35:20;102104.53;;;9.58;100.00
21111;BME280;10713;51.912;4.494;2023-01-31T10:40:35;102087.97;;;9.50;100.00
21111;BME280;10713;51.912;4.494;2023-01-31T10:43:31;102080.09;;;9.48;100.00
21111;BME280;10713;51.912;4.494;2023-01-31T10:45:58;102074.91;;;9.42;100.00
21111;BME280;10713;51.912;4.494;2023-01-31T10:48:27;102081.00;;;9.44;100.00
21111;BME280;10713;51.912;4.494;2023-01-31T10:54:17;102077.44;;;9.48;100.00
21111;BME280;10713;51.912;4.494;2023-01-31T10:56:46;102073.94;;;9.47;100.00
21111;BME280;10713;51.912;4.494;2023-01-31T11:01:41;102073.03;;;9.50;100.00
21111;BME280;10713;51.912;4.494;2023-01-31T11:06:52;102074.66;;;9.59;100.00
21111;BME280;10713;51.912;4.494;2023-01-31T11:09:19;102068.44;;;9.63;100.00
21111;BME280;10713;51.912;4.494;2023-01-31T11:11:57;102071.94;;;9.65;100.00
21111;BME280;10713;51.912;4.494;2023-01-31T11:14:24;102084.25;;;9.64;100.00
21111;BME280;10713;51.912;4.494;2023-01-31T11:16:56;102081.59;;;9.64;100.00
21111;BME280;10713;51.912;4.494;2023-01-31T11:19:29;102077.22;;;9.63;100.00
21111;BME280;10713;51.912;4.494;2023-01-31T11:21:58;102085.16;;;9.62;100.00
21111;BME280;10713;51.912;4.494;2023-01-31T11:24:26;102086.84;;;9.66;100.00
21111;BME280;10713;51.912;4.494;2023-01-31T11:26:58;102072.72;;;9.70;100.00
21111;BME280;10713;51.912;4.494;2023-01-31T11:29:33;102071.88;;;9.66;100.00
21111;BME280;10713;51.912;4.494;2023-01-31T11:32:01;102070.09;;;9.70;100.00
21111;BME280;10713;51.912;4.494;2023-01-31T11:34:29;102070.09;;;9.70;100.00
21111;BME280;10713;51.912;4.494;2023-01-31T11:37:16;102075.38;;;9.68;100.00
21111;BME280;10713;51.912;4.494;2023-01-31T11:39:54;102081.56;;;9.67;100.00
21111;BME280;10713;51.912;4.494;2023-01-31T11:42:20;102071.94;;;9.65;100.00
21111;BME280;10713;51.912;4.494;2023-01-31T11:52:56;102066.56;;;9.69;100.00
21111;BME280;10713;51.912;4.494;2023-01-31T11:55:22;102063.91;;;9.71;100.00
21111;BME280;10713;51.912;4.494;2023-01-31T11:57:53;102068.28;;;9.72;100.00
21111;BME280;10713;51.912;4.494;2023-01-31T12:02:58;102069.19;;;9.69;100.00
21111;BME280;10713;51.912;4.494;2023-01-31T12:05:36;102056.84;;;9.73;100.00
21111;BME280;10713;51.912;4.494;2023-01-31T12:08:01;102055.09;;;9.74;100.00
21111;BME280;10713;51.912;4.494;2023-01-31T12:10:30;102048.03;;;9.74;100.00
21111;BME280;10713;51.912;4.494;2023-01-31T12:13:02;102059.50;;;9.73;100.00
21111;BME280;10713;51.912;4.494;2023-01-31T12:15:29;102045.34;;;9.76;100.00
21111;BME280;10713;51.912;4.494;2023-01-31T12:17:57;102050.63;;;9.79;100.00
21111;BME280;10713;51.912;4.494;2023-01-31T12:20:47;102045.22;;;9.85;100.00
21111;BME280;10713;51.912;4.494;2023-01-31T12:34:45;102029.38;;;9.86;100.00
21111;BME280;10713;51.912;4.494;2023-01-31T12:47:51;102013.03;;;10.14;100.00
21111;BME280;10713;51.912;4.494;2023-01-31T12:50:35;102013.84;;;10.18;100.00
21111;BME280;10713;51.912;4.494;2023-01-31T12:53:38;102002.22;;;10.29;100.00
21111;BME280;10713;51.912;4.494;2023-01-31T12:59:01;102009.88;;;10.43;100.00
21111;BME280;10713;51.912;4.494;2023-01-31T13:01:44;102005.50;;;10.42;100.00
21111;BME280;10713;51.912;4.494;2023-01-31T13:04:36;102004.34;;;10.55;100.00
21111;BME280;10713;51.912;4.494;2023-01-31T13:07:07;101996.41;;;10.55;100.00
21111;BME280;10713;51.912;4.494;2023-01-31T13:09:34;102002.41;;;10.64;100.00
21111;BME280;10713;51.912;4.494;2023-01-31T13:12:13;101987.34;;;10.69;100.00
21111;BME280;10713;51.912;4.494;2023-01-31T13:14:41;101981.97;;;10.73;100.00
21111;BME280;10713;51.912;4.494;2023-01-31T13:17:11;101987.94;;;10.81;100.00
21111;BME280;10713;51.912;4.494;2023-01-31T13:19:58;101985.19;;;10.88;100.00
21111;BME280;10713;51.912;4.494;2023-01-31T13:22:28;101993.34;;;10.77;100.00
21111;BME280;10713;51.912;4.494;2023-01-31T13:25:36;102002.97;;;10.79;100.00
21111;BME280;10713;51.912;4.494;2023-01-31T13:30:49;101997.63;;;10.81;100.00
21111;BME280;10713;51.912;4.494;2023-01-31T13:33:28;101995.19;;;10.72;100.00
21111;BME280;10713;51.912;4.494;2023-01-31T13:36:18;102001.25;;;10.77;100.00
21111;BME280;10713;51.912;4.494;2023-01-31T13:38:46;102000.28;;;10.81;100.00
21111;BME280;10713;51.912;4.494;2023-01-31T13:41:20;102008.06;;;10.87;100.00
21111;BME280;10713;51.912;4.494;2023-01-31T13:43:47;102000.13;;;10.89;100.00
21111;BME280;10713;51.912;4.494;2023-01-31T13:46:15;102011.53;;;10.91;100.00
21111;BME280;10713;51.912;4.494;2023-01-31T13:48:51;102016.66;;;10.97;100.00
21111;BME280;10713;51.912;4.494;2023-01-31T13:51:37;102023.53;;;11.04;100.00
21111;BME280;10713;51.912;4.494;2023-01-31T13:54:15;102026.97;;;11.09;100.00
21111;BME280;10713;51.912;4.494;2023-01-31T13:56:48;102026.75;;;11.18;100.00
21111;BME280;10713;51.912;4.494;2023-01-31T13:59:20;102030.06;;;11.26;100.00
21111;BME280;10713;51.912;4.494;2023-01-31T14:01:48;102020.38;;;11.27;100.00
21111;BME280;10713;51.912;4.494;2023-01-31T14:27:26;102051.91;;;10.96;100.00
21111;BME280;10713;51.912;4.494;2023-01-31T14:32:33;102050.38;;;10.84;100.00
21111;BME280;10713;51.912;4.494;2023-01-31T14:46:03;102065.50;;;10.77;100.00
21111;BME280;10713;51.912;4.494;2023-01-31T15:00:15;102092.16;;;10.65;100.00
21111;BME280;10713;51.912;4.494;2023-01-31T15:03:01;102070.91;;;10.71;100.00
21111;BME280;10713;51.912;4.494;2023-01-31T15:18:58;102096.22;;;10.81;100.00
21111;BME280;10713;51.912;4.494;2023-01-31T15:21:31;102090.13;;;10.79;100.00
21111;BME280;10713;51.912;4.494;2023-01-31T15:23:58;102106.97;;;10.72;100.00
21111;BME280;10713;51.912;4.494;2023-01-31T15:26:27;102103.63;;;10.64;100.00
21111;BME280;10713;51.912;4.494;2023-01-31T15:28:55;102106.31;;;10.61;100.00